aviador You're here:

LUKK Decoded Metar

KISHINEV in MOLDOVA
Report Time2018-06-25 11:30:00
UTC Time2018-06-25 11:51:39
Flight Rules vfr VFR
Wind210° at 07 kt
W.Decomp.*RWY 26: 3.9 kt HW 5.8 kt LCW
W.Rank210° ranks 16
Current wind is above 210° avg. (5.9)
Visibility9999 m
Phenomena:N/A
Clouds:Broken CB 049 Hf
Expected CloudBase > 5,200 ft AGL from Temp-Dew spread
Ceiling4,900 ft
Temp23°C (ISA +9)
Dew Point10°C (44% RH)
AAT20.5°C
QNH1018 hPa
Density Alt1,421 ft
Elevation400 ft
Report Wrong Elevation
Raw Report
METAR LUKK 251130Z 21007KT 170V240 9999 BKN049CB 23/10 Q1018 R08/D
NOSIG=

Extra information for LUKK:More info

Metar Taf Metar & Taf Last 4 Metars F.Rules Stats Wind Profile Meteogram Temp Stats Airport Information Weather charts Add Link Nearby VenuesMetar ALERT Operation Metar Decoded Social comments